createdAt,value
2023-05-19T00:00:48.975Z,11.09
2023-05-19T00:03:21.644Z,11.10
2023-05-19T00:05:48.604Z,11.11
2023-05-19T00:08:17.005Z,11.02
2023-05-19T00:10:43.824Z,10.94
2023-05-19T00:13:10.413Z,10.79
2023-05-19T00:15:37.242Z,10.81
2023-05-19T00:18:03.788Z,10.83
2023-05-19T00:20:30.496Z,10.73
2023-05-19T00:22:57.082Z,10.73
2023-05-19T00:25:23.516Z,10.70
2023-05-19T00:27:49.992Z,10.70
2023-05-19T00:30:16.528Z,10.69
2023-05-19T00:32:43.167Z,10.71
2023-05-19T00:35:09.786Z,10.78
2023-05-19T00:37:36.256Z,10.81
2023-05-19T00:40:02.754Z,10.75
2023-05-19T00:42:29.246Z,10.64
2023-05-19T00:44:55.850Z,10.67
2023-05-19T00:47:22.369Z,10.61
2023-05-19T00:49:48.850Z,10.62
2023-05-19T00:52:15.336Z,10.62
2023-05-19T00:54:41.884Z,10.61
2023-05-19T00:57:08.384Z,10.63
2023-05-19T00:59:34.840Z,10.58
2023-05-19T01:02:02.780Z,10.51
2023-05-19T01:04:29.709Z,10.48
2023-05-19T01:06:56.495Z,10.52
2023-05-19T01:09:23.570Z,10.55
2023-05-19T01:11:50.564Z,10.48
2023-05-19T01:14:17.287Z,10.45
2023-05-19T01:16:48.755Z,10.39
2023-05-19T01:19:36.904Z,10.37
2023-05-19T01:22:22.941Z,10.27
2023-05-19T01:25:04.450Z,10.24
2023-05-19T01:27:49.117Z,10.21
2023-05-19T01:30:29.306Z,10.21
2023-05-19T01:33:01.586Z,10.23
2023-05-19T01:35:28.319Z,10.23
2023-05-19T01:37:57.593Z,10.24
2023-05-19T01:40:25.565Z,10.22
2023-05-19T01:42:58.814Z,10.18
2023-05-19T01:45:26.863Z,10.18
2023-05-19T01:47:56.428Z,10.17
2023-05-19T01:50:23.247Z,10.12
2023-05-19T01:52:49.930Z,10.09
2023-05-19T01:55:16.540Z,10.13
2023-05-19T01:58:20.725Z,10.16
2023-05-19T02:00:54.040Z,10.20
2023-05-19T02:04:00.603Z,10.21
2023-05-19T02:06:35.070Z,10.11
2023-05-19T02:09:09.435Z,10.08
2023-05-19T02:11:53.463Z,10.12
2023-05-19T02:14:22.426Z,10.02
2023-05-19T02:16:49.380Z,10.03
2023-05-19T02:19:26.932Z,10.06
2023-05-19T02:21:53.465Z,10.03
2023-05-19T02:24:20.211Z,10.00
2023-05-19T02:26:46.650Z,10.01
2023-05-19T02:29:13.140Z,10.02
2023-05-19T02:31:39.680Z,9.94
2023-05-19T02:34:06.158Z,9.99
2023-05-19T02:36:34.920Z,9.98
2023-05-19T02:39:04.487Z,9.99
2023-05-19T02:41:31.526Z,9.94
2023-05-19T02:43:58.018Z,9.95
2023-05-19T02:46:24.539Z,9.96
2023-05-19T02:48:52.166Z,9.95
2023-05-19T02:51:18.588Z,9.93
2023-05-19T02:53:45.025Z,9.95
2023-05-19T02:56:11.527Z,9.97
2023-05-19T02:58:38.126Z,9.98
2023-05-19T03:01:04.544Z,10.00
2023-05-19T03:03:31.066Z,10.04
2023-05-19T03:05:57.744Z,10.05
2023-05-19T03:08:24.163Z,10.05
2023-05-19T03:10:50.675Z,10.05
2023-05-19T03:13:17.131Z,10.06
2023-05-19T03:15:43.593Z,10.08
2023-05-19T03:18:10.087Z,10.07
2023-05-19T03:20:36.643Z,10.08
2023-05-19T03:23:03.169Z,10.08
2023-05-19T03:25:30.024Z,10.05
2023-05-19T03:27:56.475Z,10.03
2023-05-19T03:30:22.906Z,9.96
2023-05-19T03:32:49.415Z,9.97
2023-05-19T03:35:15.917Z,10.00
2023-05-19T03:37:42.333Z,10.03
2023-05-19T03:40:09.233Z,10.05
2023-05-19T03:42:35.707Z,10.06
2023-05-19T03:45:03.396Z,10.03
2023-05-19T03:47:31.650Z,10.00
2023-05-19T03:49:58.134Z,9.95
2023-05-19T03:52:24.588Z,9.94
2023-05-19T03:54:51.285Z,9.92
2023-05-19T03:57:17.703Z,9.92
2023-05-19T03:59:44.171Z,9.88
2023-05-19T04:02:10.669Z,9.83
2023-05-19T04:04:40.010Z,9.82
2023-05-19T04:07:07.174Z,9.77
2023-05-19T04:09:35.261Z,9.78
2023-05-19T04:12:05.479Z,9.80
2023-05-19T04:14:31.953Z,9.79
2023-05-19T04:16:58.438Z,9.81
2023-05-19T04:19:24.982Z,9.79
2023-05-19T04:21:52.061Z,9.72
2023-05-19T04:24:18.511Z,9.75
2023-05-19T04:26:47.060Z,9.71
2023-05-19T04:29:13.864Z,9.75
2023-05-19T04:31:41.095Z,9.78
2023-05-19T04:34:10.512Z,9.78
2023-05-19T04:36:37.796Z,9.83
2023-05-19T04:39:07.820Z,9.80
2023-05-19T04:41:34.726Z,9.77
2023-05-19T04:44:01.158Z,9.73
2023-05-19T04:46:29.986Z,9.72
2023-05-19T04:48:57.160Z,9.82
2023-05-19T04:51:29.221Z,9.83
2023-05-19T04:53:57.547Z,9.87
2023-05-19T04:56:24.158Z,9.90
2023-05-19T04:58:50.736Z,9.93
2023-05-19T05:01:17.212Z,9.91
2023-05-19T05:03:44.443Z,9.95
2023-05-19T05:06:11.680Z,10.00
2023-05-19T05:08:40.372Z,10.00
2023-05-19T05:11:07.075Z,10.01
2023-05-19T05:13:34.024Z,10.05
2023-05-19T05:16:00.666Z,10.06
2023-05-19T05:18:27.469Z,10.06
2023-05-19T05:20:54.484Z,10.05
2023-05-19T05:23:21.260Z,10.10
2023-05-19T05:25:47.986Z,10.09
2023-05-19T05:28:14.557Z,10.06
2023-05-19T05:30:41.468Z,10.10
2023-05-19T05:33:09.578Z,10.10
2023-05-19T05:35:36.190Z,10.14
2023-05-19T05:38:02.878Z,10.18
2023-05-19T05:40:29.483Z,10.23
2023-05-19T05:42:56.733Z,10.30
2023-05-19T05:45:23.478Z,10.33
2023-05-19T05:47:50.341Z,10.36
2023-05-19T05:50:17.545Z,10.38
2023-05-19T05:52:47.883Z,10.45
2023-05-19T05:55:15.342Z,10.54
2023-05-19T05:57:41.876Z,10.62
2023-05-19T06:00:18.112Z,10.67
2023-05-19T06:02:50.626Z,10.75
2023-05-19T06:05:17.475Z,10.86
2023-05-19T06:07:43.926Z,10.91
2023-05-19T06:10:10.363Z,10.89
2023-05-19T06:12:40.544Z,11.06
2023-05-19T06:15:08.012Z,11.10
2023-05-19T06:17:35.850Z,11.20
2023-05-19T06:20:02.718Z,11.26
2023-05-19T06:22:29.147Z,11.29
2023-05-19T06:24:55.856Z,11.36
2023-05-19T06:27:22.359Z,11.42
2023-05-19T06:29:48.790Z,11.50
2023-05-19T06:32:15.284Z,11.60
2023-05-19T06:34:41.709Z,11.67
2023-05-19T06:37:08.165Z,11.75
2023-05-19T06:39:34.663Z,11.78
2023-05-19T06:42:01.183Z,11.90
2023-05-19T06:44:27.644Z,11.91
2023-05-19T06:46:54.476Z,11.99
2023-05-19T06:49:20.996Z,12.06
2023-05-19T06:51:47.803Z,12.10
2023-05-19T06:54:16.158Z,12.21
2023-05-19T06:56:42.887Z,12.32
2023-05-19T06:59:09.403Z,12.37
2023-05-19T07:01:35.830Z,12.46
2023-05-19T07:04:02.389Z,12.51
2023-05-19T07:06:29.318Z,12.58
2023-05-19T07:08:55.851Z,12.65
2023-05-19T07:11:22.855Z,12.74
2023-05-19T07:13:49.260Z,12.84
2023-05-19T07:16:15.739Z,12.92
2023-05-19T07:18:42.284Z,13.03
2023-05-19T07:21:08.800Z,13.11
2023-05-19T07:23:35.197Z,13.20
2023-05-19T07:26:01.594Z,13.27
2023-05-19T07:28:28.049Z,13.38
2023-05-19T07:30:54.573Z,13.52
2023-05-19T07:33:21.133Z,13.63
2023-05-19T07:35:47.906Z,13.79
2023-05-19T07:38:14.510Z,13.92
2023-05-19T07:40:40.961Z,14.01
2023-05-19T07:43:07.421Z,14.14
2023-05-19T07:45:34.124Z,14.23
2023-05-19T07:48:00.927Z,14.39
2023-05-19T07:50:27.532Z,14.56
2023-05-19T07:52:54.020Z,14.78
2023-05-19T07:55:23.098Z,15.00
2023-05-19T07:57:50.790Z,15.23
2023-05-19T08:00:17.776Z,15.39
2023-05-19T08:02:44.711Z,15.58
2023-05-19T08:05:11.609Z,15.79
2023-05-19T08:07:38.130Z,15.81
2023-05-19T08:10:05.145Z,16.14
2023-05-19T08:12:32.335Z,16.52
2023-05-19T08:15:01.017Z,16.82
2023-05-19T08:17:28.026Z,17.28
2023-05-19T08:19:54.483Z,17.54
2023-05-19T08:22:21.137Z,17.73
2023-05-19T08:24:49.672Z,17.84
2023-05-19T08:27:16.629Z,18.07
2023-05-19T08:29:43.199Z,17.95
2023-05-19T08:32:11.630Z,17.99
2023-05-19T08:34:39.624Z,18.22
2023-05-19T08:37:06.910Z,18.75
2023-05-19T08:39:34.772Z,19.07
2023-05-19T08:42:01.596Z,19.45
2023-05-19T08:44:28.845Z,19.63
2023-05-19T08:46:56.257Z,19.89
2023-05-19T08:49:28.045Z,20.07
2023-05-19T08:52:06.361Z,20.21
2023-05-19T08:54:54.405Z,20.00
2023-05-19T08:57:22.431Z,20.31
2023-05-19T08:59:50.085Z,20.30
2023-05-19T09:02:16.685Z,19.84
2023-05-19T09:04:45.995Z,19.73
2023-05-19T09:07:14.104Z,20.29
2023-05-19T09:09:43.555Z,20.25
2023-05-19T09:12:13.584Z,20.53
2023-05-19T09:14:40.339Z,20.77
2023-05-19T09:17:06.907Z,20.59
2023-05-19T09:19:33.469Z,20.42
2023-05-19T09:22:03.929Z,20.17
2023-05-19T09:24:30.576Z,20.05
2023-05-19T09:26:58.453Z,20.44
2023-05-19T09:29:26.497Z,20.87
2023-05-19T09:32:00.880Z,21.02
2023-05-19T09:34:27.780Z,21.30
2023-05-19T09:36:54.368Z,21.57
2023-05-19T09:39:22.525Z,22.00
2023-05-19T09:41:56.099Z,22.05
2023-05-19T09:44:23.472Z,22.24
2023-05-19T09:46:50.810Z,22.51
2023-05-19T09:49:25.229Z,22.75
2023-05-19T09:51:56.566Z,22.85
2023-05-19T09:54:23.825Z,22.79
2023-05-19T09:57:00.892Z,22.45
2023-05-19T09:59:32.099Z,22.46
2023-05-19T10:02:00.350Z,22.14
2023-05-19T10:04:28.742Z,21.81
2023-05-19T10:06:59.360Z,21.59
2023-05-19T10:09:27.618Z,21.32
2023-05-19T10:11:56.156Z,21.78
2023-05-19T10:14:24.569Z,21.88
2023-05-19T10:16:52.444Z,21.71
2023-05-19T10:19:26.766Z,21.45
2023-05-19T10:21:53.745Z,21.54
2023-05-19T10:24:21.264Z,21.94
2023-05-19T10:26:54.538Z,22.38
2023-05-19T10:29:23.916Z,22.82
2023-05-19T10:31:51.388Z,22.53
2023-05-19T10:34:22.072Z,22.39
2023-05-19T10:36:50.739Z,22.43
2023-05-19T10:39:22.468Z,22.47
2023-05-19T10:42:11.315Z,22.55
2023-05-19T10:44:57.884Z,22.79
2023-05-19T10:47:25.383Z,22.68
2023-05-19T10:49:55.728Z,22.66
2023-05-19T10:52:25.648Z,22.72
2023-05-19T10:54:54.564Z,22.45
2023-05-19T10:57:32.358Z,22.43
2023-05-19T11:00:00.901Z,22.60
2023-05-19T11:02:40.993Z,22.73
2023-05-19T11:05:18.520Z,22.54
2023-05-19T11:07:56.091Z,22.68
2023-05-19T11:10:23.501Z,22.65
2023-05-19T11:12:50.088Z,22.50
2023-05-19T11:15:16.959Z,22.47
2023-05-19T11:17:48.399Z,22.45
2023-05-19T11:20:24.729Z,22.45
2023-05-19T11:23:07.053Z,22.44
2023-05-19T11:25:54.293Z,22.13
2023-05-19T11:28:25.737Z,22.04
2023-05-19T11:30:54.658Z,22.21
2023-05-19T11:33:21.530Z,22.33
2023-05-19T11:35:50.545Z,22.41
2023-05-19T11:38:18.200Z,22.64
2023-05-19T11:40:44.786Z,22.59
2023-05-19T11:43:11.300Z,22.69
2023-05-19T11:45:38.048Z,22.80
2023-05-19T11:48:05.392Z,22.83
2023-05-19T11:50:32.440Z,22.86
2023-05-19T11:53:00.362Z,22.89
2023-05-19T11:55:27.440Z,22.78
2023-05-19T11:58:04.475Z,22.70
2023-05-19T12:00:39.035Z,22.51
2023-05-19T12:03:05.982Z,22.52
2023-05-19T12:05:35.408Z,22.71
2023-05-19T12:08:06.150Z,22.72
2023-05-19T12:10:34.208Z,22.70
2023-05-19T12:13:02.054Z,22.62
2023-05-19T12:15:28.532Z,22.68
2023-05-19T12:17:59.590Z,22.87
2023-05-19T12:20:27.528Z,22.99
2023-05-19T12:22:57.327Z,22.91
2023-05-19T12:25:24.297Z,22.86
2023-05-19T12:27:52.770Z,22.87
2023-05-19T12:30:26.237Z,22.84
2023-05-19T12:32:53.850Z,22.99
2023-05-19T12:35:20.478Z,22.70
2023-05-19T12:37:49.120Z,22.73
2023-05-19T12:40:16.776Z,22.64
2023-05-19T12:42:46.665Z,22.46
2023-05-19T12:45:13.091Z,22.29
2023-05-19T12:47:39.606Z,22.36
2023-05-19T12:50:10.829Z,22.51
2023-05-19T12:52:48.224Z,22.33
2023-05-19T12:55:16.405Z,22.16
2023-05-19T12:57:50.490Z,22.23
2023-05-19T13:00:20.894Z,22.49
2023-05-19T13:03:05.295Z,22.74
2023-05-19T13:05:33.755Z,22.74
2023-05-19T13:08:02.627Z,22.50
2023-05-19T13:10:29.873Z,22.45
2023-05-19T13:12:57.488Z,22.73
2023-05-19T13:15:26.095Z,22.94
2023-05-19T13:17:53.201Z,22.99
2023-05-19T13:20:20.747Z,22.92
2023-05-19T13:22:50.484Z,22.86
2023-05-19T13:25:17.092Z,22.87
2023-05-19T13:27:47.654Z,23.03
2023-05-19T13:30:15.732Z,23.18
2023-05-19T13:32:42.410Z,23.33
2023-05-19T13:35:10.350Z,23.16
2023-05-19T13:37:36.839Z,23.19
2023-05-19T13:40:03.660Z,23.26
2023-05-19T13:42:30.119Z,23.45
2023-05-19T13:44:56.694Z,23.67
2023-05-19T13:47:23.575Z,23.62
2023-05-19T13:49:50.682Z,23.53
2023-05-19T13:52:17.476Z,23.49
2023-05-19T13:54:44.156Z,23.66
2023-05-19T13:57:10.592Z,23.78
2023-05-19T13:59:43.101Z,23.94
2023-05-19T14:02:19.706Z,24.04
2023-05-19T14:04:47.172Z,23.85
2023-05-19T14:07:13.596Z,23.82
2023-05-19T14:09:40.061Z,23.86
2023-05-19T14:12:07.185Z,23.92
2023-05-19T14:14:33.595Z,23.89
2023-05-19T14:17:00.140Z,23.71
2023-05-19T14:19:30.158Z,23.72
2023-05-19T14:21:57.343Z,23.75
2023-05-19T14:24:23.885Z,23.91
2023-05-19T14:26:50.748Z,23.98
2023-05-19T14:29:17.149Z,23.92
2023-05-19T14:31:43.683Z,23.86
2023-05-19T14:34:10.294Z,23.70
2023-05-19T14:36:36.808Z,23.70
2023-05-19T14:39:03.332Z,23.67
2023-05-19T14:41:29.763Z,23.71
2023-05-19T14:43:56.541Z,23.88
2023-05-19T14:46:23.012Z,23.98
2023-05-19T14:48:49.554Z,24.08
2023-05-19T14:51:16.052Z,23.92
2023-05-19T14:53:42.511Z,23.98
2023-05-19T14:56:08.961Z,23.98
2023-05-19T14:58:35.550Z,23.92
2023-05-19T15:01:02.041Z,23.80
2023-05-19T15:03:28.585Z,23.97
2023-05-19T15:05:55.093Z,23.85
2023-05-19T15:08:21.557Z,23.75
2023-05-19T15:10:49.095Z,23.65
2023-05-19T15:13:16.098Z,23.45
2023-05-19T15:15:42.601Z,23.45
2023-05-19T15:18:09.067Z,23.33
2023-05-19T15:20:35.738Z,23.30
2023-05-19T15:23:02.319Z,23.46
2023-05-19T15:25:28.805Z,23.65
2023-05-19T15:27:55.386Z,23.56
2023-05-19T15:30:22.266Z,23.59
2023-05-19T15:32:48.787Z,23.64
2023-05-19T15:35:15.800Z,23.64
2023-05-19T15:37:42.241Z,23.83
2023-05-19T15:40:09.266Z,23.97
2023-05-19T15:42:35.673Z,23.98
2023-05-19T15:45:02.101Z,23.84
2023-05-19T15:47:28.559Z,23.69
2023-05-19T15:49:55.000Z,23.63
2023-05-19T15:52:21.452Z,23.65
2023-05-19T15:54:48.679Z,23.63
2023-05-19T15:57:15.119Z,23.43
2023-05-19T15:59:41.541Z,23.27
2023-05-19T16:02:08.466Z,23.20
2023-05-19T16:04:34.927Z,22.93
2023-05-19T16:07:01.353Z,22.89
2023-05-19T16:09:27.789Z,22.82
2023-05-19T16:11:54.271Z,22.79
2023-05-19T16:14:20.740Z,22.87
2023-05-19T16:16:47.544Z,23.02
2023-05-19T16:19:14.123Z,22.87
2023-05-19T16:21:41.211Z,22.65
2023-05-19T16:24:07.645Z,22.48
2023-05-19T16:26:34.500Z,22.48
2023-05-19T16:29:00.972Z,22.56
2023-05-19T16:31:27.571Z,22.53
2023-05-19T16:33:54.195Z,22.52
2023-05-19T16:36:22.711Z,22.60
2023-05-19T16:38:49.296Z,22.59
2023-05-19T16:41:15.895Z,22.49
2023-05-19T16:43:42.388Z,22.30
2023-05-19T16:46:09.833Z,22.09
2023-05-19T16:48:36.420Z,21.96
2023-05-19T16:51:02.913Z,21.94
2023-05-19T16:53:31.743Z,21.92
2023-05-19T16:55:59.317Z,21.82
2023-05-19T16:58:26.830Z,21.83
2023-05-19T17:00:54.555Z,21.82
2023-05-19T17:03:21.292Z,21.61
2023-05-19T17:05:48.218Z,21.58
2023-05-19T17:08:14.749Z,21.56
2023-05-19T17:10:41.261Z,21.46
2023-05-19T17:13:07.797Z,21.35
2023-05-19T17:15:34.834Z,21.35
2023-05-19T17:18:01.314Z,21.31
2023-05-19T17:20:27.838Z,21.15
2023-05-19T17:22:54.335Z,20.95
2023-05-19T17:25:20.806Z,21.04
2023-05-19T17:27:47.925Z,21.05
2023-05-19T17:30:14.380Z,21.00
2023-05-19T17:32:40.927Z,20.96
2023-05-19T17:35:07.822Z,21.02
2023-05-19T17:37:34.253Z,21.07
2023-05-19T17:40:00.942Z,20.92
2023-05-19T17:42:28.988Z,20.81
2023-05-19T17:44:55.444Z,20.72
2023-05-19T17:47:21.903Z,20.65
2023-05-19T17:49:48.329Z,20.65
2023-05-19T17:52:15.819Z,20.63
2023-05-19T17:54:42.437Z,20.44
2023-05-19T17:57:12.592Z,20.37
2023-05-19T17:59:39.250Z,20.40
2023-05-19T18:02:07.334Z,20.33
2023-05-19T18:04:34.224Z,20.40
2023-05-19T18:07:01.953Z,20.41
2023-05-19T18:09:29.309Z,20.34
2023-05-19T18:11:56.588Z,20.33
2023-05-19T18:14:23.026Z,20.23
2023-05-19T18:16:50.005Z,20.11
2023-05-19T18:19:16.596Z,19.90
2023-05-19T18:21:43.115Z,19.81
2023-05-19T18:24:09.522Z,19.71
2023-05-19T18:26:41.518Z,19.69
2023-05-19T18:29:11.389Z,19.64
2023-05-19T18:31:38.053Z,19.59
2023-05-19T18:34:04.572Z,19.49
2023-05-19T18:36:31.474Z,19.42
2023-05-19T18:38:59.165Z,19.34
2023-05-19T18:41:25.868Z,19.20
2023-05-19T18:43:52.328Z,19.13
2023-05-19T18:46:18.895Z,19.01
2023-05-19T18:48:45.407Z,18.90
2023-05-19T18:51:14.220Z,18.77
2023-05-19T18:53:40.754Z,18.68
2023-05-19T18:56:07.486Z,18.61
2023-05-19T18:58:33.977Z,18.45
2023-05-19T19:01:00.489Z,18.47
2023-05-19T19:03:28.556Z,18.45
2023-05-19T19:05:56.058Z,18.38
2023-05-19T19:08:22.566Z,18.36
2023-05-19T19:10:51.391Z,18.43
2023-05-19T19:13:18.243Z,18.41
2023-05-19T19:15:45.032Z,18.35
2023-05-19T19:18:11.875Z,18.26
2023-05-19T19:20:38.393Z,18.16
2023-05-19T19:23:06.595Z,18.15
2023-05-19T19:25:33.501Z,18.12
2023-05-19T19:27:59.933Z,18.02
2023-05-19T19:30:26.954Z,17.96
2023-05-19T19:32:54.773Z,17.90
2023-05-19T19:35:21.308Z,17.83
2023-05-19T19:37:47.793Z,17.78
2023-05-19T19:40:14.209Z,17.69
2023-05-19T19:42:40.688Z,17.59
2023-05-19T19:45:07.791Z,17.56
2023-05-19T19:47:34.384Z,17.54
2023-05-19T19:50:02.635Z,17.55
2023-05-19T19:52:29.133Z,17.51
2023-05-19T19:54:55.825Z,17.47
2023-05-19T19:57:22.307Z,17.49
2023-05-19T19:59:54.987Z,17.36
2023-05-19T20:02:21.691Z,17.35
2023-05-19T20:04:48.391Z,17.32
2023-05-19T20:07:15.080Z,17.27
2023-05-19T20:09:41.834Z,17.19
2023-05-19T20:12:08.235Z,17.13
2023-05-19T20:14:34.893Z,17.07
2023-05-19T20:17:01.385Z,16.97
2023-05-19T20:19:27.953Z,16.94
2023-05-19T20:21:54.475Z,16.88
2023-05-19T20:24:21.078Z,16.87
2023-05-19T20:26:47.536Z,16.83
2023-05-19T20:29:14.041Z,16.78
2023-05-19T20:31:41.077Z,16.76
2023-05-19T20:34:07.591Z,16.75
2023-05-19T20:36:34.052Z,16.73
2023-05-19T20:39:00.530Z,16.77
2023-05-19T20:41:27.385Z,16.72
2023-05-19T20:43:54.923Z,16.70
2023-05-19T20:46:21.478Z,16.67
2023-05-19T20:48:48.058Z,16.64
2023-05-19T20:51:14.515Z,16.56
2023-05-19T20:53:41.136Z,16.50
2023-05-19T20:56:10.353Z,16.46
2023-05-19T20:58:37.505Z,16.47
2023-05-19T21:01:04.028Z,16.46
2023-05-19T21:03:31.973Z,16.36
2023-05-19T21:05:58.468Z,16.31
2023-05-19T21:08:25.454Z,16.26
2023-05-19T21:10:52.021Z,16.15
2023-05-19T21:13:18.662Z,16.07
2023-05-19T21:15:45.130Z,16.07
2023-05-19T21:18:12.359Z,16.03
2023-05-19T21:20:39.183Z,16.01
2023-05-19T21:23:05.751Z,15.96
2023-05-19T21:25:32.231Z,15.93
2023-05-19T21:27:58.814Z,15.93
2023-05-19T21:30:25.264Z,15.89
2023-05-19T21:32:51.706Z,15.85
2023-05-19T21:35:18.161Z,15.89
2023-05-19T21:37:44.587Z,15.80
2023-05-19T21:40:11.624Z,15.73
2023-05-19T21:42:38.038Z,15.71
2023-05-19T21:45:04.904Z,15.71
2023-05-19T21:47:31.373Z,15.67
2023-05-19T21:49:57.824Z,15.64
2023-05-19T21:52:24.324Z,15.62
2023-05-19T21:54:51.963Z,15.56
2023-05-19T21:57:18.448Z,15.48
2023-05-19T21:59:45.067Z,15.41
2023-05-19T22:02:11.613Z,15.40
2023-05-19T22:04:38.553Z,15.37
2023-05-19T22:07:06.735Z,15.28
2023-05-19T22:09:33.183Z,15.22
2023-05-19T22:11:59.606Z,15.17
2023-05-19T22:14:26.455Z,15.13
2023-05-19T22:16:53.120Z,15.09
2023-05-19T22:19:19.986Z,15.08
2023-05-19T22:21:46.505Z,15.07
2023-05-19T22:24:13.024Z,15.05
2023-05-19T22:26:42.635Z,15.00
2023-05-19T22:29:12.116Z,15.00
2023-05-19T22:31:38.611Z,14.97
2023-05-19T22:34:05.136Z,14.92
2023-05-19T22:36:31.582Z,14.86
2023-05-19T22:38:57.991Z,14.84
2023-05-19T22:41:24.427Z,14.80
2023-05-19T22:43:50.844Z,14.79
2023-05-19T22:46:17.394Z,14.77
2023-05-19T22:48:43.863Z,14.77
2023-05-19T22:51:10.404Z,14.74
2023-05-19T22:53:36.836Z,14.72
2023-05-19T22:56:03.302Z,14.58
2023-05-19T22:58:29.765Z,14.58
2023-05-19T23:00:56.489Z,14.60
2023-05-19T23:03:23.147Z,14.54
2023-05-19T23:05:49.598Z,14.52
2023-05-19T23:08:16.057Z,14.50
2023-05-19T23:10:42.500Z,14.50
2023-05-19T23:13:10.157Z,14.38
2023-05-19T23:15:36.647Z,14.42
2023-05-19T23:18:07.263Z,14.33
2023-05-19T23:20:34.378Z,14.30
2023-05-19T23:23:01.437Z,14.26
2023-05-19T23:25:27.907Z,14.24
2023-05-19T23:27:54.416Z,14.20
2023-05-19T23:30:20.816Z,14.17
2023-05-19T23:32:47.313Z,14.17
2023-05-19T23:35:16.175Z,14.12
2023-05-19T23:37:42.851Z,14.10
2023-05-19T23:40:09.881Z,14.10
2023-05-19T23:42:36.497Z,14.09
2023-05-19T23:45:03.360Z,14.09
2023-05-19T23:47:29.879Z,14.07
2023-05-19T23:49:56.405Z,14.02
2023-05-19T23:52:22.885Z,14.00
2023-05-19T23:54:49.407Z,13.97
2023-05-19T23:57:16.026Z,13.95
2023-05-19T23:59:43.053Z,13.89
